createdAt,value
2023-01-02T00:08:25.833Z,39.7
2023-01-02T00:39:27.713Z,39.7
2023-01-02T01:10:29.559Z,38.6
2023-01-02T01:40:31.430Z,38.1
2023-01-02T02:11:33.507Z,39.2
2023-01-02T02:41:35.301Z,39.2
2023-01-02T03:11:37.599Z,38.6
2023-01-02T03:42:39.530Z,38.1
2023-01-02T04:14:41.473Z,39.2
2023-01-02T04:46:43.390Z,37.6
2023-01-02T05:16:45.264Z,37.6
2023-01-02T05:46:47.163Z,37.6
2023-01-02T06:16:48.913Z,37
2023-01-02T06:46:50.872Z,37.6
2023-01-02T07:16:52.607Z,38.1
2023-01-02T07:47:54.772Z,39.7
2023-01-02T08:22:56.561Z,39.7
2023-01-02T08:52:58.552Z,40.8
2023-01-02T09:24:00.542Z,41.3
2023-01-02T09:54:02.280Z,42.9
2023-01-02T10:29:04.412Z,45.6
2023-01-02T10:59:06.239Z,60.7
2023-01-02T12:18:11.000Z,49.4
2023-01-02T12:59:14.057Z,49.9
2023-01-02T13:31:16.058Z,49.9
2023-01-02T14:01:17.890Z,48.9
2023-01-02T14:31:19.781Z,47.2
2023-01-02T15:04:21.812Z,47.2
2023-01-02T15:37:23.877Z,46.2
2023-01-02T16:07:25.688Z,45.1
2023-01-02T16:37:27.613Z,44
2023-01-02T17:09:29.662Z,43.5
2023-01-02T17:44:31.843Z,43.5
2023-01-02T18:15:33.801Z,45.1
2023-01-02T18:46:35.769Z,44
2023-01-02T19:16:37.823Z,58
2023-01-02T19:46:39.837Z,44
2023-01-02T20:18:41.795Z,44
2023-01-02T20:49:43.658Z,43.5
2023-01-02T21:19:45.442Z,44.5
2023-01-02T21:50:47.231Z,43.5
2023-01-02T22:20:49.000Z,42.9
2023-01-02T22:51:51.212Z,41.3
2023-01-02T23:25:53.233Z,42.4
2023-01-02T23:56:55.000Z,40.8
